sensor_id;sensor_type;location;lat;lon;timestamp;P1;durP1;ratioP1;P2;durP2;ratioP2
33150;SDS011;19508;42.578;23.416;2022-11-20T00:02:24;9.50;;;2.00;;
33150;SDS011;19508;42.578;23.416;2022-11-20T00:04:50;10.00;;;1.52;;
33150;SDS011;19508;42.578;23.416;2022-11-20T00:07:15;7.28;;;1.50;;
33150;SDS011;19508;42.578;23.416;2022-11-20T00:09:40;5.65;;;1.70;;
33150;SDS011;19508;42.578;23.416;2022-11-20T00:12:06;5.10;;;1.38;;
33150;SDS011;19508;42.578;23.416;2022-11-20T00:14:31;5.97;;;2.15;;
33150;SDS011;19508;42.578;23.416;2022-11-20T00:16:58;8.57;;;0.90;;
33150;SDS011;19508;42.578;23.416;2022-11-20T00:19:24;7.18;;;1.30;;
33150;SDS011;19508;42.578;23.416;2022-11-20T00:21:49;1.92;;;1.00;;
33150;SDS011;19508;42.578;23.416;2022-11-20T00:24:16;2.60;;;0.93;;
33150;SDS011;19508;42.578;23.416;2022-11-20T00:26:41;3.50;;;1.23;;
33150;SDS011;19508;42.578;23.416;2022-11-20T00:31:36;5.97;;;1.20;;
33150;SDS011;19508;42.578;23.416;2022-11-20T00:34:02;6.57;;;1.05;;
33150;SDS011;19508;42.578;23.416;2022-11-20T00:36:29;9.23;;;1.65;;
33150;SDS011;19508;42.578;23.416;2022-11-20T00:38:58;5.10;;;1.08;;
33150;SDS011;19508;42.578;23.416;2022-11-20T00:41:24;3.40;;;1.58;;
33150;SDS011;19508;42.578;23.416;2022-11-20T00:43:54;4.18;;;1.02;;
33150;SDS011;19508;42.578;23.416;2022-11-20T00:46:24;5.00;;;1.40;;
33150;SDS011;19508;42.578;23.416;2022-11-20T00:48:52;4.15;;;0.90;;
33150;SDS011;19508;42.578;23.416;2022-11-20T00:51:18;2.15;;;1.20;;
33150;SDS011;19508;42.578;23.416;2022-11-20T00:53:45;4.57;;;0.95;;
33150;SDS011;19508;42.578;23.416;2022-11-20T00:56:12;5.78;;;1.58;;
33150;SDS011;19508;42.578;23.416;2022-11-20T00:58:39;4.15;;;1.25;;
33150;SDS011;19508;42.578;23.416;2022-11-20T01:01:10;2.83;;;0.95;;
33150;SDS011;19508;42.578;23.416;2022-11-20T01:03:38;3.03;;;0.90;;
33150;SDS011;19508;42.578;23.416;2022-11-20T01:06:09;8.27;;;1.80;;
33150;SDS011;19508;42.578;23.416;2022-11-20T01:08:37;1.17;;;0.52;;
33150;SDS011;19508;42.578;23.416;2022-11-20T01:11:07;1.55;;;0.77;;
33150;SDS011;19508;42.578;23.416;2022-11-20T01:13:35;7.22;;;2.50;;
33150;SDS011;19508;42.578;23.416;2022-11-20T01:16:05;3.78;;;1.00;;
33150;SDS011;19508;42.578;23.416;2022-11-20T01:18:33;4.25;;;1.02;;
33150;SDS011;19508;42.578;23.416;2022-11-20T01:21:05;1.25;;;0.57;;
33150;SDS011;19508;42.578;23.416;2022-11-20T01:23:33;5.88;;;1.20;;
33150;SDS011;19508;42.578;23.416;2022-11-20T01:26:02;1.48;;;0.57;;
33150;SDS011;19508;42.578;23.416;2022-11-20T01:28:29;1.65;;;0.70;;
33150;SDS011;19508;42.578;23.416;2022-11-20T01:30:56;4.60;;;1.42;;
33150;SDS011;19508;42.578;23.416;2022-11-20T01:33:21;1.85;;;0.70;;
33150;SDS011;19508;42.578;23.416;2022-11-20T01:38:17;4.85;;;1.23;;
33150;SDS011;19508;42.578;23.416;2022-11-20T01:40:45;2.38;;;1.15;;
33150;SDS011;19508;42.578;23.416;2022-11-20T01:43:16;3.83;;;0.70;;
33150;SDS011;19508;42.578;23.416;2022-11-20T01:51:21;3.70;;;0.65;;
33150;SDS011;19508;42.578;23.416;2022-11-20T01:53:50;0.77;;;0.60;;
33150;SDS011;19508;42.578;23.416;2022-11-20T01:56:18;5.63;;;1.10;;
33150;SDS011;19508;42.578;23.416;2022-11-20T01:58:48;3.33;;;0.88;;
33150;SDS011;19508;42.578;23.416;2022-11-20T02:01:19;2.25;;;0.60;;
33150;SDS011;19508;42.578;23.416;2022-11-20T02:03:46;3.58;;;0.80;;
33150;SDS011;19508;42.578;23.416;2022-11-20T02:08:42;6.75;;;0.88;;
33150;SDS011;19508;42.578;23.416;2022-11-20T02:11:07;3.00;;;0.80;;
33150;SDS011;19508;42.578;23.416;2022-11-20T02:13:33;2.08;;;0.98;;
33150;SDS011;19508;42.578;23.416;2022-11-20T02:16:10;3.53;;;1.20;;
33150;SDS011;19508;42.578;23.416;2022-11-20T02:18:49;4.30;;;1.23;;
33150;SDS011;19508;42.578;23.416;2022-11-20T02:21:37;2.00;;;0.95;;
33150;SDS011;19508;42.578;23.416;2022-11-20T02:24:19;2.35;;;0.80;;
33150;SDS011;19508;42.578;23.416;2022-11-20T02:26:51;3.25;;;1.00;;
33150;SDS011;19508;42.578;23.416;2022-11-20T02:34:51;2.50;;;0.60;;
33150;SDS011;19508;42.578;23.416;2022-11-20T02:37:17;5.13;;;1.33;;
33150;SDS011;19508;42.578;23.416;2022-11-20T02:39:44;1.63;;;0.80;;
33150;SDS011;19508;42.578;23.416;2022-11-20T02:42:11;22.73;;;9.30;;
33150;SDS011;19508;42.578;23.416;2022-11-20T02:44:37;4.25;;;1.08;;
33150;SDS011;19508;42.578;23.416;2022-11-20T02:47:02;4.22;;;1.00;;
33150;SDS011;19508;42.578;23.416;2022-11-20T02:49:28;2.35;;;1.00;;
33150;SDS011;19508;42.578;23.416;2022-11-20T02:51:53;3.53;;;1.00;;
33150;SDS011;19508;42.578;23.416;2022-11-20T02:54:19;3.97;;;0.90;;
33150;SDS011;19508;42.578;23.416;2022-11-20T02:56:44;3.08;;;1.00;;
33150;SDS011;19508;42.578;23.416;2022-11-20T02:59:10;5.32;;;0.70;;
33150;SDS011;19508;42.578;23.416;2022-11-20T03:01:35;2.80;;;0.98;;
33150;SDS011;19508;42.578;23.416;2022-11-20T03:04:01;3.35;;;0.80;;
33150;SDS011;19508;42.578;23.416;2022-11-20T03:06:27;4.28;;;1.90;;
33150;SDS011;19508;42.578;23.416;2022-11-20T03:08:52;4.78;;;0.80;;
33150;SDS011;19508;42.578;23.416;2022-11-20T03:11:18;2.60;;;0.80;;
33150;SDS011;19508;42.578;23.416;2022-11-20T03:13:44;6.72;;;1.83;;
33150;SDS011;19508;42.578;23.416;2022-11-20T03:16:12;4.13;;;1.50;;
33150;SDS011;19508;42.578;23.416;2022-11-20T03:18:40;1.52;;;0.55;;
33150;SDS011;19508;42.578;23.416;2022-11-20T03:21:06;4.45;;;0.80;;
33150;SDS011;19508;42.578;23.416;2022-11-20T03:23:33;3.45;;;0.85;;
33150;SDS011;19508;42.578;23.416;2022-11-20T03:28:34;8.18;;;1.00;;
33150;SDS011;19508;42.578;23.416;2022-11-20T03:31:04;1.60;;;0.80;;
33150;SDS011;19508;42.578;23.416;2022-11-20T03:33:40;4.57;;;1.10;;
33150;SDS011;19508;42.578;23.416;2022-11-20T03:36:08;3.75;;;0.73;;
33150;SDS011;19508;42.578;23.416;2022-11-20T03:38:37;4.38;;;0.75;;
33150;SDS011;19508;42.578;23.416;2022-11-20T03:41:10;6.03;;;1.45;;
33150;SDS011;19508;42.578;23.416;2022-11-20T03:43:39;4.90;;;1.00;;
33150;SDS011;19508;42.578;23.416;2022-11-20T03:46:05;1.15;;;0.43;;
33150;SDS011;19508;42.578;23.416;2022-11-20T03:48:33;3.22;;;1.30;;
33150;SDS011;19508;42.578;23.416;2022-11-20T03:53:33;7.72;;;0.88;;
33150;SDS011;19508;42.578;23.416;2022-11-20T03:55:58;7.20;;;1.30;;
33150;SDS011;19508;42.578;23.416;2022-11-20T03:58:24;7.25;;;1.60;;
33150;SDS011;19508;42.578;23.416;2022-11-20T04:00:50;4.05;;;1.58;;
33150;SDS011;19508;42.578;23.416;2022-11-20T04:03:15;4.28;;;1.30;;
33150;SDS011;19508;42.578;23.416;2022-11-20T04:05:40;8.60;;;1.17;;
33150;SDS011;19508;42.578;23.416;2022-11-20T04:08:06;5.45;;;1.08;;
33150;SDS011;19508;42.578;23.416;2022-11-20T04:10:32;4.25;;;1.17;;
33150;SDS011;19508;42.578;23.416;2022-11-20T04:12:57;1.30;;;0.90;;
33150;SDS011;19508;42.578;23.416;2022-11-20T04:15:22;8.05;;;0.70;;
33150;SDS011;19508;42.578;23.416;2022-11-20T04:17:48;7.05;;;1.05;;
33150;SDS011;19508;42.578;23.416;2022-11-20T04:20:14;4.30;;;0.85;;
33150;SDS011;19508;42.578;23.416;2022-11-20T04:22:39;10.02;;;5.75;;
33150;SDS011;19508;42.578;23.416;2022-11-20T04:25:05;3.38;;;0.93;;
33150;SDS011;19508;42.578;23.416;2022-11-20T04:27:30;10.30;;;0.93;;
33150;SDS011;19508;42.578;23.416;2022-11-20T04:29:57;5.72;;;1.67;;
33150;SDS011;19508;42.578;23.416;2022-11-20T04:32:22;2.83;;;0.88;;
33150;SDS011;19508;42.578;23.416;2022-11-20T04:34:48;5.32;;;1.30;;
33150;SDS011;19508;42.578;23.416;2022-11-20T04:37:13;7.72;;;0.90;;
33150;SDS011;19508;42.578;23.416;2022-11-20T04:39:39;3.00;;;0.90;;
33150;SDS011;19508;42.578;23.416;2022-11-20T04:42:04;6.90;;;1.10;;
33150;SDS011;19508;42.578;23.416;2022-11-20T04:44:48;3.17;;;1.08;;
33150;SDS011;19508;42.578;23.416;2022-11-20T04:47:14;4.70;;;1.27;;
33150;SDS011;19508;42.578;23.416;2022-11-20T04:49:39;3.80;;;0.90;;
33150;SDS011;19508;42.578;23.416;2022-11-20T04:52:05;5.82;;;1.05;;
33150;SDS011;19508;42.578;23.416;2022-11-20T04:54:30;2.75;;;0.60;;
33150;SDS011;19508;42.578;23.416;2022-11-20T04:56:55;4.90;;;0.80;;
33150;SDS011;19508;42.578;23.416;2022-11-20T04:59:21;4.25;;;0.85;;
33150;SDS011;19508;42.578;23.416;2022-11-20T05:01:47;4.32;;;1.23;;
33150;SDS011;19508;42.578;23.416;2022-11-20T05:04:12;3.78;;;1.58;;
33150;SDS011;19508;42.578;23.416;2022-11-20T05:06:38;5.43;;;1.17;;
33150;SDS011;19508;42.578;23.416;2022-11-20T05:09:03;4.00;;;1.20;;
33150;SDS011;19508;42.578;23.416;2022-11-20T05:11:28;7.20;;;2.20;;
33150;SDS011;19508;42.578;23.416;2022-11-20T05:13:54;7.82;;;2.20;;
33150;SDS011;19508;42.578;23.416;2022-11-20T05:16:20;10.20;;;3.30;;
33150;SDS011;19508;42.578;23.416;2022-11-20T05:18:47;2.90;;;1.40;;
33150;SDS011;19508;42.578;23.416;2022-11-20T05:21:13;8.25;;;1.77;;
33150;SDS011;19508;42.578;23.416;2022-11-20T05:23:39;5.43;;;1.30;;
33150;SDS011;19508;42.578;23.416;2022-11-20T05:26:06;8.98;;;2.88;;
33150;SDS011;19508;42.578;23.416;2022-11-20T05:28:34;9.55;;;3.10;;
33150;SDS011;19508;42.578;23.416;2022-11-20T05:33:33;5.20;;;1.48;;
33150;SDS011;19508;42.578;23.416;2022-11-20T05:36:02;10.02;;;1.90;;
33150;SDS011;19508;42.578;23.416;2022-11-20T05:38:28;5.13;;;2.20;;
33150;SDS011;19508;42.578;23.416;2022-11-20T05:40:54;4.13;;;1.35;;
33150;SDS011;19508;42.578;23.416;2022-11-20T05:43:19;8.73;;;1.60;;
33150;SDS011;19508;42.578;23.416;2022-11-20T05:45:51;3.60;;;1.25;;
33150;SDS011;19508;42.578;23.416;2022-11-20T05:48:18;8.80;;;2.90;;
33150;SDS011;19508;42.578;23.416;2022-11-20T05:50:44;8.55;;;2.80;;
33150;SDS011;19508;42.578;23.416;2022-11-20T05:53:09;11.00;;;3.53;;
33150;SDS011;19508;42.578;23.416;2022-11-20T05:55:35;7.32;;;3.13;;
33150;SDS011;19508;42.578;23.416;2022-11-20T05:58:00;8.75;;;2.28;;
33150;SDS011;19508;42.578;23.416;2022-11-20T06:00:25;9.25;;;2.03;;
33150;SDS011;19508;42.578;23.416;2022-11-20T06:02:51;3.13;;;1.40;;
33150;SDS011;19508;42.578;23.416;2022-11-20T06:05:16;10.57;;;2.15;;
33150;SDS011;19508;42.578;23.416;2022-11-20T06:07:42;8.68;;;2.30;;
33150;SDS011;19508;42.578;23.416;2022-11-20T06:10:07;13.57;;;5.13;;
33150;SDS011;19508;42.578;23.416;2022-11-20T06:12:33;18.20;;;4.05;;
33150;SDS011;19508;42.578;23.416;2022-11-20T06:14:58;16.30;;;6.68;;
33150;SDS011;19508;42.578;23.416;2022-11-20T06:17:24;18.27;;;4.93;;
33150;SDS011;19508;42.578;23.416;2022-11-20T06:19:50;19.48;;;7.18;;
33150;SDS011;19508;42.578;23.416;2022-11-20T06:22:15;9.45;;;2.10;;
33150;SDS011;19508;42.578;23.416;2022-11-20T06:24:41;14.38;;;3.78;;
33150;SDS011;19508;42.578;23.416;2022-11-20T06:27:06;9.25;;;3.72;;
33150;SDS011;19508;42.578;23.416;2022-11-20T06:29:32;12.13;;;3.45;;
33150;SDS011;19508;42.578;23.416;2022-11-20T06:31:57;19.25;;;4.97;;
33150;SDS011;19508;42.578;23.416;2022-11-20T06:34:25;15.68;;;4.05;;
33150;SDS011;19508;42.578;23.416;2022-11-20T06:36:50;11.25;;;3.75;;
33150;SDS011;19508;42.578;23.416;2022-11-20T06:39:16;11.68;;;4.47;;
33150;SDS011;19508;42.578;23.416;2022-11-20T06:41:42;17.50;;;4.00;;
33150;SDS011;19508;42.578;23.416;2022-11-20T06:44:07;13.68;;;4.63;;
33150;SDS011;19508;42.578;23.416;2022-11-20T06:46:33;8.75;;;3.75;;
33150;SDS011;19508;42.578;23.416;2022-11-20T06:48:58;16.58;;;4.32;;
33150;SDS011;19508;42.578;23.416;2022-11-20T06:51:24;11.48;;;3.55;;
33150;SDS011;19508;42.578;23.416;2022-11-20T06:53:49;15.25;;;5.28;;
33150;SDS011;19508;42.578;23.416;2022-11-20T06:56:14;12.80;;;3.28;;
33150;SDS011;19508;42.578;23.416;2022-11-20T06:58:40;11.35;;;4.20;;
33150;SDS011;19508;42.578;23.416;2022-11-20T07:01:06;8.02;;;3.38;;
33150;SDS011;19508;42.578;23.416;2022-11-20T07:03:34;10.73;;;4.78;;
33150;SDS011;19508;42.578;23.416;2022-11-20T07:06:00;18.52;;;8.35;;
33150;SDS011;19508;42.578;23.416;2022-11-20T07:08:27;14.80;;;5.03;;
33150;SDS011;19508;42.578;23.416;2022-11-20T07:10:53;11.95;;;3.50;;
33150;SDS011;19508;42.578;23.416;2022-11-20T07:13:23;5.13;;;2.58;;
33150;SDS011;19508;42.578;23.416;2022-11-20T07:15:48;8.70;;;2.83;;
33150;SDS011;19508;42.578;23.416;2022-11-20T07:18:13;7.65;;;1.65;;
33150;SDS011;19508;42.578;23.416;2022-11-20T07:20:39;7.10;;;1.85;;
33150;SDS011;19508;42.578;23.416;2022-11-20T07:23:04;6.22;;;1.30;;
33150;SDS011;19508;42.578;23.416;2022-11-20T07:25:30;8.32;;;1.70;;
33150;SDS011;19508;42.578;23.416;2022-11-20T07:27:59;7.97;;;1.77;;
33150;SDS011;19508;42.578;23.416;2022-11-20T07:30:25;6.60;;;1.60;;
33150;SDS011;19508;42.578;23.416;2022-11-20T07:32:52;10.23;;;2.35;;
33150;SDS011;19508;42.578;23.416;2022-11-20T07:35:19;6.97;;;1.30;;
33150;SDS011;19508;42.578;23.416;2022-11-20T07:37:44;9.88;;;2.08;;
33150;SDS011;19508;42.578;23.416;2022-11-20T07:40:11;5.47;;;1.50;;
33150;SDS011;19508;42.578;23.416;2022-11-20T07:42:37;1.83;;;1.00;;
33150;SDS011;19508;42.578;23.416;2022-11-20T07:45:03;5.32;;;1.48;;
33150;SDS011;19508;42.578;23.416;2022-11-20T07:47:28;4.07;;;1.25;;
33150;SDS011;19508;42.578;23.416;2022-11-20T07:49:59;3.25;;;1.27;;
33150;SDS011;19508;42.578;23.416;2022-11-20T07:52:24;14.55;;;7.97;;
33150;SDS011;19508;42.578;23.416;2022-11-20T07:54:50;6.15;;;1.70;;
33150;SDS011;19508;42.578;23.416;2022-11-20T07:57:15;19.83;;;9.80;;
33150;SDS011;19508;42.578;23.416;2022-11-20T07:59:41;4.25;;;1.60;;
33150;SDS011;19508;42.578;23.416;2022-11-20T08:02:09;9.35;;;2.72;;
33150;SDS011;19508;42.578;23.416;2022-11-20T08:04:36;10.05;;;4.80;;
33150;SDS011;19508;42.578;23.416;2022-11-20T08:07:01;6.50;;;2.50;;
33150;SDS011;19508;42.578;23.416;2022-11-20T08:09:27;14.25;;;7.07;;
33150;SDS011;19508;42.578;23.416;2022-11-20T08:11:53;15.13;;;6.68;;
33150;SDS011;19508;42.578;23.416;2022-11-20T08:14:38;27.10;;;11.50;;
33150;SDS011;19508;42.578;23.416;2022-11-20T08:17:03;17.05;;;9.13;;
33150;SDS011;19508;42.578;23.416;2022-11-20T08:19:29;9.70;;;4.13;;
33150;SDS011;19508;42.578;23.416;2022-11-20T08:21:58;6.47;;;1.90;;
33150;SDS011;19508;42.578;23.416;2022-11-20T08:24:23;2.65;;;1.42;;
33150;SDS011;19508;42.578;23.416;2022-11-20T08:26:51;4.53;;;1.73;;
33150;SDS011;19508;42.578;23.416;2022-11-20T08:29:17;6.65;;;1.35;;
33150;SDS011;19508;42.578;23.416;2022-11-20T08:31:42;7.15;;;1.83;;
33150;SDS011;19508;42.578;23.416;2022-11-20T08:34:08;7.13;;;1.10;;
33150;SDS011;19508;42.578;23.416;2022-11-20T08:36:34;9.75;;;1.80;;
33150;SDS011;19508;42.578;23.416;2022-11-20T08:39:00;5.38;;;1.70;;
33150;SDS011;19508;42.578;23.416;2022-11-20T08:41:25;10.43;;;1.55;;
33150;SDS011;19508;42.578;23.416;2022-11-20T08:44:05;12.65;;;1.73;;
33150;SDS011;19508;42.578;23.416;2022-11-20T08:46:34;6.15;;;1.30;;
33150;SDS011;19508;42.578;23.416;2022-11-20T08:51:34;4.80;;;1.27;;
33150;SDS011;19508;42.578;23.416;2022-11-20T08:53:59;4.38;;;1.50;;
33150;SDS011;19508;42.578;23.416;2022-11-20T08:58:55;8.35;;;1.60;;
33150;SDS011;19508;42.578;23.416;2022-11-20T09:01:20;8.52;;;1.45;;
33150;SDS011;19508;42.578;23.416;2022-11-20T09:03:48;12.85;;;2.05;;
33150;SDS011;19508;42.578;23.416;2022-11-20T09:06:14;11.80;;;1.77;;
33150;SDS011;19508;42.578;23.416;2022-11-20T09:08:39;13.48;;;1.98;;
33150;SDS011;19508;42.578;23.416;2022-11-20T09:11:05;6.22;;;1.60;;
33150;SDS011;19508;42.578;23.416;2022-11-20T09:13:31;14.02;;;2.10;;
33150;SDS011;19508;42.578;23.416;2022-11-20T09:15:59;10.52;;;1.80;;
33150;SDS011;19508;42.578;23.416;2022-11-20T09:18:26;15.35;;;4.60;;
33150;SDS011;19508;42.578;23.416;2022-11-20T09:20:57;9.15;;;2.83;;
33150;SDS011;19508;42.578;23.416;2022-11-20T09:23:27;12.07;;;3.60;;
33150;SDS011;19508;42.578;23.416;2022-11-20T09:25:56;21.35;;;4.10;;
33150;SDS011;19508;42.578;23.416;2022-11-20T09:28:24;13.57;;;2.70;;
33150;SDS011;19508;42.578;23.416;2022-11-20T09:30:51;9.80;;;2.58;;
33150;SDS011;19508;42.578;23.416;2022-11-20T09:33:16;8.00;;;2.95;;
33150;SDS011;19508;42.578;23.416;2022-11-20T09:35:43;15.93;;;2.78;;
33150;SDS011;19508;42.578;23.416;2022-11-20T09:38:08;10.38;;;3.38;;
33150;SDS011;19508;42.578;23.416;2022-11-20T09:40:36;11.23;;;2.88;;
33150;SDS011;19508;42.578;23.416;2022-11-20T09:54:17;10.77;;;2.47;;
33150;SDS011;19508;42.578;23.416;2022-11-20T09:56:46;25.42;;;7.43;;
33150;SDS011;19508;42.578;23.416;2022-11-20T09:59:35;32.42;;;10.63;;
33150;SDS011;19508;42.578;23.416;2022-11-20T10:02:18;6.88;;;2.88;;
33150;SDS011;19508;42.578;23.416;2022-11-20T10:04:53;13.73;;;3.33;;
33150;SDS011;19508;42.578;23.416;2022-11-20T10:07:37;11.60;;;2.95;;
33150;SDS011;19508;42.578;23.416;2022-11-20T10:13:06;16.08;;;3.75;;
33150;SDS011;19508;42.578;23.416;2022-11-20T10:15:33;29.13;;;3.60;;
33150;SDS011;19508;42.578;23.416;2022-11-20T10:18:09;11.70;;;3.90;;
33150;SDS011;19508;42.578;23.416;2022-11-20T10:20:48;13.20;;;4.15;;
33150;SDS011;19508;42.578;23.416;2022-11-20T10:23:27;19.13;;;6.10;;
33150;SDS011;19508;42.578;23.416;2022-11-20T10:31:25;15.23;;;3.88;;
33150;SDS011;19508;42.578;23.416;2022-11-20T10:33:56;22.25;;;4.78;;
33150;SDS011;19508;42.578;23.416;2022-11-20T10:36:33;17.63;;;3.70;;
33150;SDS011;19508;42.578;23.416;2022-11-20T10:39:05;9.57;;;3.05;;
33150;SDS011;19508;42.578;23.416;2022-11-20T10:41:42;14.68;;;2.60;;
33150;SDS011;19508;42.578;23.416;2022-11-20T10:44:24;12.82;;;2.85;;
33150;SDS011;19508;42.578;23.416;2022-11-20T10:47:17;22.30;;;3.35;;
33150;SDS011;19508;42.578;23.416;2022-11-20T10:49:45;13.02;;;2.78;;
33150;SDS011;19508;42.578;23.416;2022-11-20T10:52:19;13.90;;;2.90;;
33150;SDS011;19508;42.578;23.416;2022-11-20T10:58:25;11.30;;;2.60;;
33150;SDS011;19508;42.578;23.416;2022-11-20T11:03:51;14.25;;;2.33;;
33150;SDS011;19508;42.578;23.416;2022-11-20T11:09:19;27.90;;;2.78;;
33150;SDS011;19508;42.578;23.416;2022-11-20T11:11:53;10.23;;;3.08;;
33150;SDS011;19508;42.578;23.416;2022-11-20T11:14:18;19.00;;;2.90;;
33150;SDS011;19508;42.578;23.416;2022-11-20T11:16:52;14.50;;;2.83;;
33150;SDS011;19508;42.578;23.416;2022-11-20T11:19:19;17.55;;;3.22;;
33150;SDS011;19508;42.578;23.416;2022-11-20T11:21:55;20.08;;;2.95;;
33150;SDS011;19508;42.578;23.416;2022-11-20T11:24:26;10.30;;;2.15;;
33150;SDS011;19508;42.578;23.416;2022-11-20T11:27:02;11.75;;;2.45;;
33150;SDS011;19508;42.578;23.416;2022-11-20T11:29:35;8.73;;;1.80;;
33150;SDS011;19508;42.578;23.416;2022-11-20T11:32:05;7.85;;;1.90;;
33150;SDS011;19508;42.578;23.416;2022-11-20T11:34:38;8.40;;;2.42;;
33150;SDS011;19508;42.578;23.416;2022-11-20T11:37:03;22.58;;;3.75;;
33150;SDS011;19508;42.578;23.416;2022-11-20T11:39:31;11.27;;;3.13;;
33150;SDS011;19508;42.578;23.416;2022-11-20T11:42:16;9.77;;;3.60;;
33150;SDS011;19508;42.578;23.416;2022-11-20T11:44:44;8.55;;;2.20;;
33150;SDS011;19508;42.578;23.416;2022-11-20T11:50:35;6.05;;;1.38;;
33150;SDS011;19508;42.578;23.416;2022-11-20T11:53:16;5.65;;;1.60;;
33150;SDS011;19508;42.578;23.416;2022-11-20T11:56:07;6.30;;;2.75;;
33150;SDS011;19508;42.578;23.416;2022-11-20T12:01:46;0.90;;;0.90;;
33150;SDS011;19508;42.578;23.416;2022-11-20T12:04:22;3.53;;;0.93;;
33150;SDS011;19508;42.578;23.416;2022-11-20T12:07:06;5.47;;;4.20;;
33150;SDS011;19508;42.578;23.416;2022-11-20T12:10:03;3.78;;;1.58;;
33150;SDS011;19508;42.578;23.416;2022-11-20T12:15:54;3.50;;;1.83;;
33150;SDS011;19508;42.578;23.416;2022-11-20T12:18:38;24.15;;;11.75;;
33150;SDS011;19508;42.578;23.416;2022-11-20T12:27:33;12.15;;;6.85;;
33150;SDS011;19508;42.578;23.416;2022-11-20T12:30:22;36.10;;;12.95;;
33150;SDS011;19508;42.578;23.416;2022-11-20T12:39:43;10.48;;;2.67;;
33150;SDS011;19508;42.578;23.416;2022-11-20T12:48:45;30.92;;;12.57;;
33150;SDS011;19508;42.578;23.416;2022-11-20T12:55:03;30.33;;;5.03;;
33150;SDS011;19508;42.578;23.416;2022-11-20T12:57:55;20.77;;;10.68;;
33150;SDS011;19508;42.578;23.416;2022-11-20T13:00:47;5.18;;;1.85;;
33150;SDS011;19508;42.578;23.416;2022-11-20T14:17:06;14.23;;;2.95;;
33150;SDS011;19508;42.578;23.416;2022-11-20T14:19:46;18.05;;;6.78;;
33150;SDS011;19508;42.578;23.416;2022-11-20T14:37:46;25.25;;;9.30;;
33150;SDS011;19508;42.578;23.416;2022-11-20T14:40:22;27.05;;;11.10;;
33150;SDS011;19508;42.578;23.416;2022-11-20T14:42:48;21.27;;;7.72;;
33150;SDS011;19508;42.578;23.416;2022-11-20T14:45:14;13.00;;;4.50;;
33150;SDS011;19508;42.578;23.416;2022-11-20T14:47:40;11.88;;;3.67;;
33150;SDS011;19508;42.578;23.416;2022-11-20T14:50:23;17.80;;;8.23;;
33150;SDS011;19508;42.578;23.416;2022-11-20T14:52:56;45.03;;;12.52;;
33150;SDS011;19508;42.578;23.416;2022-11-20T14:58:02;20.60;;;7.53;;
33150;SDS011;19508;42.578;23.416;2022-11-20T15:00:30;45.40;;;16.63;;
33150;SDS011;19508;42.578;23.416;2022-11-20T15:02:57;100.20;;;30.77;;
33150;SDS011;19508;42.578;23.416;2022-11-20T15:05:37;80.13;;;23.52;;
33150;SDS011;19508;42.578;23.416;2022-11-20T15:08:14;43.40;;;13.68;;
33150;SDS011;19508;42.578;23.416;2022-11-20T15:10:50;53.25;;;12.25;;
33150;SDS011;19508;42.578;23.416;2022-11-20T15:16:01;10.20;;;4.47;;
33150;SDS011;19508;42.578;23.416;2022-11-20T15:18:30;33.13;;;12.60;;
33150;SDS011;19508;42.578;23.416;2022-11-20T15:21:00;12.20;;;3.88;;
33150;SDS011;19508;42.578;23.416;2022-11-20T15:23:27;11.07;;;5.78;;
33150;SDS011;19508;42.578;23.416;2022-11-20T15:25:54;16.35;;;5.57;;
33150;SDS011;19508;42.578;23.416;2022-11-20T15:31:12;9.50;;;4.13;;
33150;SDS011;19508;42.578;23.416;2022-11-20T15:33:39;12.20;;;4.40;;
33150;SDS011;19508;42.578;23.416;2022-11-20T15:36:05;10.80;;;3.28;;
33150;SDS011;19508;42.578;23.416;2022-11-20T15:38:30;6.90;;;3.15;;
33150;SDS011;19508;42.578;23.416;2022-11-20T15:40:56;4.22;;;2.47;;
33150;SDS011;19508;42.578;23.416;2022-11-20T15:43:22;4.28;;;2.38;;
33150;SDS011;19508;42.578;23.416;2022-11-20T15:45:53;14.38;;;2.90;;
33150;SDS011;19508;42.578;23.416;2022-11-20T15:48:26;15.18;;;2.80;;
33150;SDS011;19508;42.578;23.416;2022-11-20T15:53:31;3.97;;;1.65;;
33150;SDS011;19508;42.578;23.416;2022-11-20T15:55:57;3.45;;;1.63;;
33150;SDS011;19508;42.578;23.416;2022-11-20T15:58:25;3.92;;;1.83;;
33150;SDS011;19508;42.578;23.416;2022-11-20T16:00:51;5.07;;;2.20;;
33150;SDS011;19508;42.578;23.416;2022-11-20T16:03:17;7.07;;;3.80;;
33150;SDS011;19508;42.578;23.416;2022-11-20T16:05:44;7.55;;;3.10;;
33150;SDS011;19508;42.578;23.416;2022-11-20T16:08:12;7.10;;;3.45;;
33150;SDS011;19508;42.578;23.416;2022-11-20T16:10:38;10.35;;;3.30;;
33150;SDS011;19508;42.578;23.416;2022-11-20T16:13:03;9.13;;;3.38;;
33150;SDS011;19508;42.578;23.416;2022-11-20T16:15:55;7.97;;;3.55;;
33150;SDS011;19508;42.578;23.416;2022-11-20T16:18:23;6.05;;;2.90;;
33150;SDS011;19508;42.578;23.416;2022-11-20T16:20:50;5.78;;;3.15;;
33150;SDS011;19508;42.578;23.416;2022-11-20T16:23:17;9.90;;;4.55;;
33150;SDS011;19508;42.578;23.416;2022-11-20T16:25:43;11.43;;;3.90;;
33150;SDS011;19508;42.578;23.416;2022-11-20T16:28:10;4.10;;;2.70;;
33150;SDS011;19508;42.578;23.416;2022-11-20T16:30:36;6.57;;;3.22;;
33150;SDS011;19508;42.578;23.416;2022-11-20T16:33:02;4.65;;;2.20;;
33150;SDS011;19508;42.578;23.416;2022-11-20T16:35:29;6.38;;;2.67;;
33150;SDS011;19508;42.578;23.416;2022-11-20T16:37:55;6.15;;;2.72;;
33150;SDS011;19508;42.578;23.416;2022-11-20T16:40:22;3.75;;;2.00;;
33150;SDS011;19508;42.578;23.416;2022-11-20T16:42:48;8.02;;;2.38;;
33150;SDS011;19508;42.578;23.416;2022-11-20T16:45:13;5.18;;;2.10;;
33150;SDS011;19508;42.578;23.416;2022-11-20T16:47:40;13.35;;;7.43;;
33150;SDS011;19508;42.578;23.416;2022-11-20T16:50:05;6.57;;;3.40;;
33150;SDS011;19508;42.578;23.416;2022-11-20T16:52:31;6.03;;;2.60;;
33150;SDS011;19508;42.578;23.416;2022-11-20T16:54:56;9.05;;;4.35;;
33150;SDS011;19508;42.578;23.416;2022-11-20T16:57:22;9.18;;;4.25;;
33150;SDS011;19508;42.578;23.416;2022-11-20T16:59:48;8.90;;;3.90;;
33150;SDS011;19508;42.578;23.416;2022-11-20T17:02:14;6.22;;;3.35;;
33150;SDS011;19508;42.578;23.416;2022-11-20T17:04:39;3.33;;;2.20;;
33150;SDS011;19508;42.578;23.416;2022-11-20T17:07:05;10.82;;;3.65;;
33150;SDS011;19508;42.578;23.416;2022-11-20T17:09:31;7.20;;;3.65;;
33150;SDS011;19508;42.578;23.416;2022-11-20T17:11:57;9.52;;;3.60;;
33150;SDS011;19508;42.578;23.416;2022-11-20T17:14:22;8.38;;;4.28;;
33150;SDS011;19508;42.578;23.416;2022-11-20T17:16:48;9.18;;;4.50;;
33150;SDS011;19508;42.578;23.416;2022-11-20T17:19:13;11.63;;;6.15;;
33150;SDS011;19508;42.578;23.416;2022-11-20T17:21:39;11.07;;;4.35;;
33150;SDS011;19508;42.578;23.416;2022-11-20T17:24:05;14.18;;;5.05;;
33150;SDS011;19508;42.578;23.416;2022-11-20T17:26:33;15.93;;;6.10;;
33150;SDS011;19508;42.578;23.416;2022-11-20T17:29:00;13.73;;;6.88;;
33150;SDS011;19508;42.578;23.416;2022-11-20T17:31:28;16.88;;;7.75;;
33150;SDS011;19508;42.578;23.416;2022-11-20T17:33:55;24.13;;;11.88;;
33150;SDS011;19508;42.578;23.416;2022-11-20T17:36:23;32.60;;;14.27;;
33150;SDS011;19508;42.578;23.416;2022-11-20T17:38:48;50.30;;;21.75;;
33150;SDS011;19508;42.578;23.416;2022-11-20T17:41:14;35.63;;;17.40;;
33150;SDS011;19508;42.578;23.416;2022-11-20T17:43:42;22.52;;;9.95;;
33150;SDS011;19508;42.578;23.416;2022-11-20T17:46:10;41.72;;;21.23;;
33150;SDS011;19508;42.578;23.416;2022-11-20T17:48:37;12.63;;;6.28;;
33150;SDS011;19508;42.578;23.416;2022-11-20T17:51:06;13.32;;;6.68;;